createdAt,value
2023-03-20T00:00:44.846Z,20.42
2023-03-20T00:01:44.863Z,20.48
2023-03-20T00:02:44.905Z,20.44
2023-03-20T00:04:45.050Z,20.53
2023-03-20T00:05:45.274Z,20.48
2023-03-20T00:06:45.011Z,20.41
2023-03-20T00:07:45.050Z,20.44
2023-03-20T00:08:45.069Z,20.48
2023-03-20T00:09:45.108Z,20.46
2023-03-20T00:10:45.145Z,20.51
2023-03-20T00:11:45.402Z,20.48
2023-03-20T00:12:45.188Z,20.51
2023-03-20T00:13:45.214Z,20.54
2023-03-20T00:14:45.265Z,20.48
2023-03-20T00:16:45.324Z,20.42
2023-03-20T00:17:45.333Z,20.46
2023-03-20T00:18:45.659Z,20.42
2023-03-20T00:19:45.387Z,20.51
2023-03-20T00:20:45.422Z,20.48
2023-03-20T00:21:45.451Z,20.46
2023-03-20T00:22:45.474Z,20.48
2023-03-20T00:23:45.510Z,20.48
2023-03-20T00:24:45.543Z,20.46
2023-03-20T00:25:45.814Z,20.48
2023-03-20T00:26:45.629Z,20.50
2023-03-20T00:27:45.623Z,20.44
2023-03-20T00:28:45.660Z,20.48
2023-03-20T00:29:45.691Z,20.48
2023-03-20T00:30:45.743Z,20.51
2023-03-20T00:31:45.831Z,20.50
2023-03-20T00:32:46.166Z,20.51
2023-03-20T00:33:45.797Z,20.44
2023-03-20T00:34:45.840Z,20.41
2023-03-20T00:35:45.950Z,20.44
2023-03-20T00:36:45.892Z,20.48
2023-03-20T00:37:45.917Z,20.46
2023-03-20T00:38:45.953Z,20.42
2023-03-20T00:39:46.282Z,20.44
2023-03-20T00:40:46.011Z,20.42
2023-03-20T00:41:46.045Z,20.44
2023-03-20T00:42:46.067Z,20.46
2023-03-20T00:43:46.100Z,20.42
2023-03-20T00:44:46.131Z,20.41
2023-03-20T00:45:46.187Z,20.42
2023-03-20T00:46:46.508Z,20.48
2023-03-20T00:47:46.225Z,20.42
2023-03-20T00:48:46.251Z,20.48
2023-03-20T00:49:46.280Z,20.42
2023-03-20T00:50:46.306Z,20.41
2023-03-20T00:51:46.332Z,20.38
2023-03-20T00:52:46.372Z,20.48
2023-03-20T00:53:46.664Z,20.50
2023-03-20T00:54:46.442Z,20.42
2023-03-20T00:55:46.480Z,20.41
2023-03-20T00:56:46.478Z,20.44
2023-03-20T00:57:46.509Z,20.42
2023-03-20T00:58:46.549Z,20.46
2023-03-20T00:59:46.656Z,20.38
2023-03-20T01:00:47.108Z,20.41
2023-03-20T01:01:46.718Z,20.40
2023-03-20T01:02:47.032Z,20.48
2023-03-20T01:04:46.722Z,20.44
2023-03-20T01:05:46.755Z,20.42
2023-03-20T01:06:46.776Z,20.41
2023-03-20T01:08:46.841Z,20.41
2023-03-20T01:09:46.870Z,20.48
2023-03-20T01:10:46.907Z,20.42
2023-03-20T01:11:46.931Z,20.44
2023-03-20T01:12:46.958Z,20.42
2023-03-20T01:14:47.316Z,20.46
2023-03-20T01:15:47.047Z,20.44
2023-03-20T01:16:47.173Z,20.48
2023-03-20T01:17:47.103Z,20.38
2023-03-20T01:18:47.149Z,20.38
2023-03-20T01:19:47.158Z,20.41
2023-03-20T01:20:47.193Z,20.37
2023-03-20T01:21:47.491Z,20.35
2023-03-20T01:22:47.248Z,20.40
2023-03-20T01:23:47.280Z,20.40
2023-03-20T01:24:47.344Z,20.38
2023-03-20T01:25:47.338Z,20.35
2023-03-20T01:26:47.377Z,20.44
2023-03-20T01:27:47.394Z,20.42
2023-03-20T01:28:47.691Z,20.40
2023-03-20T01:29:47.462Z,20.37
2023-03-20T01:30:47.486Z,20.41
2023-03-20T01:31:47.612Z,20.40
2023-03-20T01:32:47.559Z,20.33
2023-03-20T01:33:47.573Z,20.42
2023-03-20T01:34:47.622Z,20.35
2023-03-20T01:35:48.074Z,20.40
2023-03-20T01:36:47.660Z,20.42
2023-03-20T01:37:47.687Z,20.42
2023-03-20T01:38:47.721Z,20.42
2023-03-20T01:39:47.751Z,20.40
2023-03-20T01:40:47.789Z,20.40
2023-03-20T01:41:47.804Z,20.42
2023-03-20T01:42:48.138Z,20.37
2023-03-20T01:43:47.912Z,20.31
2023-03-20T01:44:47.895Z,20.42
2023-03-20T01:45:47.939Z,20.34
2023-03-20T01:46:47.962Z,20.48
2023-03-20T01:47:47.998Z,20.38
2023-03-20T01:48:48.315Z,20.34
2023-03-20T01:49:48.046Z,20.40
2023-03-20T01:50:48.098Z,20.41
2023-03-20T01:51:48.107Z,20.41
2023-03-20T01:52:48.143Z,20.42
2023-03-20T01:53:48.170Z,20.37
2023-03-20T01:54:48.498Z,20.37
2023-03-20T01:55:48.232Z,20.37
2023-03-20T01:56:48.253Z,20.35
2023-03-20T01:57:48.311Z,20.41
2023-03-20T01:58:48.310Z,20.35
2023-03-20T01:59:48.348Z,20.31
2023-03-20T02:00:48.827Z,20.31
2023-03-20T02:01:48.397Z,20.37
2023-03-20T02:02:48.435Z,20.33
2023-03-20T02:03:48.473Z,20.35
2023-03-20T02:04:48.609Z,20.30
2023-03-20T02:05:48.524Z,20.31
2023-03-20T02:06:48.569Z,20.38
2023-03-20T02:07:48.833Z,20.34
2023-03-20T02:08:48.606Z,20.37
2023-03-20T02:09:48.639Z,20.33
2023-03-20T02:10:48.665Z,20.33
2023-03-20T02:11:48.695Z,20.33
2023-03-20T02:12:48.726Z,20.30
2023-03-20T02:13:48.752Z,20.41
2023-03-20T02:14:49.089Z,20.34
2023-03-20T02:15:48.813Z,20.33
2023-03-20T02:16:48.930Z,20.38
2023-03-20T02:17:48.872Z,20.38
2023-03-20T02:18:48.902Z,20.37
2023-03-20T02:19:48.931Z,20.34
2023-03-20T02:20:48.966Z,20.35
2023-03-20T02:21:49.297Z,20.31
2023-03-20T02:22:49.041Z,20.38
2023-03-20T02:23:49.050Z,20.31
2023-03-20T02:24:49.100Z,20.35
2023-03-20T02:25:49.109Z,20.31
2023-03-20T02:26:49.141Z,20.35
2023-03-20T02:27:49.169Z,20.34
2023-03-20T02:28:49.450Z,20.35
2023-03-20T02:30:49.330Z,20.37
2023-03-20T02:31:49.288Z,20.37
2023-03-20T02:32:49.406Z,20.35
2023-03-20T02:33:49.340Z,20.35
2023-03-20T02:34:49.369Z,20.35
2023-03-20T02:35:49.786Z,20.35
2023-03-20T02:36:49.432Z,20.33
2023-03-20T02:37:49.466Z,20.34
2023-03-20T02:38:49.515Z,20.35
2023-03-20T02:39:49.532Z,20.34
2023-03-20T02:40:49.549Z,20.38
2023-03-20T02:41:49.636Z,20.31
2023-03-20T02:42:49.916Z,20.27
2023-03-20T02:43:49.637Z,20.33
2023-03-20T02:44:49.673Z,20.30
2023-03-20T02:45:49.814Z,20.34
2023-03-20T02:46:49.750Z,20.33
2023-03-20T02:47:49.767Z,20.33
2023-03-20T02:48:49.790Z,20.33
2023-03-20T02:49:50.127Z,20.31
2023-03-20T02:50:49.850Z,20.34
2023-03-20T02:52:49.917Z,20.31
2023-03-20T02:53:49.932Z,20.33
2023-03-20T02:55:50.023Z,20.30
2023-03-20T02:56:50.321Z,20.27
2023-03-20T02:57:50.055Z,20.31
2023-03-20T02:58:50.088Z,20.31
2023-03-20T02:59:50.114Z,20.27
2023-03-20T03:00:50.152Z,20.33
2023-03-20T03:01:50.252Z,20.33
2023-03-20T03:02:50.285Z,20.30
2023-03-20T03:03:50.538Z,20.33
2023-03-20T03:04:50.276Z,20.33
2023-03-20T03:05:50.290Z,20.27
2023-03-20T03:06:50.318Z,20.33
2023-03-20T03:07:50.387Z,20.31
2023-03-20T03:08:50.377Z,20.30
2023-03-20T03:09:50.428Z,20.33
2023-03-20T03:10:50.743Z,20.33
2023-03-20T03:11:50.512Z,20.27
2023-03-20T03:12:50.496Z,20.27
2023-03-20T03:13:50.542Z,20.31
2023-03-20T03:14:50.562Z,20.26
2023-03-20T03:15:50.668Z,20.33
2023-03-20T03:16:50.617Z,20.37
2023-03-20T03:17:50.942Z,20.35
2023-03-20T03:20:50.857Z,20.35
2023-03-20T03:21:50.769Z,20.31
2023-03-20T03:22:50.837Z,20.34
2023-03-20T03:23:50.823Z,20.35
2023-03-20T03:24:51.163Z,20.33
2023-03-20T03:25:50.886Z,20.25
2023-03-20T03:26:50.908Z,20.33
2023-03-20T03:27:50.961Z,20.37
2023-03-20T03:28:50.974Z,20.33
2023-03-20T03:29:51.008Z,20.30
2023-03-20T03:30:51.046Z,20.34
2023-03-20T03:31:51.360Z,20.33
2023-03-20T03:32:51.142Z,20.30
2023-03-20T03:33:51.159Z,20.33
2023-03-20T03:34:51.147Z,20.30
2023-03-20T03:35:51.229Z,20.33
2023-03-20T03:36:51.202Z,20.27
2023-03-20T03:37:51.245Z,20.25
2023-03-20T03:38:51.566Z,20.30
2023-03-20T03:39:51.378Z,20.34
2023-03-20T03:40:51.329Z,20.31
2023-03-20T03:41:51.354Z,20.31
2023-03-20T03:42:51.416Z,20.31
2023-03-20T03:43:51.458Z,20.33
2023-03-20T03:44:51.751Z,20.26
2023-03-20T03:45:51.473Z,20.30
2023-03-20T03:46:51.568Z,20.33
2023-03-20T03:47:51.529Z,20.30
2023-03-20T03:48:51.561Z,20.33
2023-03-20T03:49:51.602Z,20.33
2023-03-20T03:50:51.872Z,20.37
2023-03-20T03:51:51.649Z,20.27
2023-03-20T03:52:51.676Z,20.26
2023-03-20T03:53:51.711Z,20.30
2023-03-20T03:54:51.743Z,20.30
2023-03-20T03:55:51.830Z,20.33
2023-03-20T03:56:52.104Z,20.33
2023-03-20T03:57:51.842Z,20.27
2023-03-20T03:58:51.855Z,20.33
2023-03-20T03:59:51.908Z,20.27
2023-03-20T04:00:51.951Z,20.26
2023-03-20T04:01:52.002Z,20.30
2023-03-20T04:02:51.976Z,20.33
2023-03-20T04:03:52.267Z,20.27
2023-03-20T04:04:52.145Z,20.31
2023-03-20T04:05:52.071Z,20.23
2023-03-20T04:06:52.104Z,20.33
2023-03-20T04:07:52.127Z,20.30
2023-03-20T04:08:52.152Z,20.26
2023-03-20T04:09:52.187Z,20.25
2023-03-20T04:10:52.520Z,20.25
2023-03-20T04:11:52.251Z,20.25
2023-03-20T04:12:52.272Z,20.25
2023-03-20T04:13:52.320Z,20.26
2023-03-20T04:14:52.369Z,20.33
2023-03-20T04:15:52.412Z,20.30
2023-03-20T04:16:52.394Z,20.25
2023-03-20T04:17:52.742Z,20.30
2023-03-20T04:18:52.456Z,20.30
2023-03-20T04:19:52.482Z,20.22
2023-03-20T04:20:52.514Z,20.27
2023-03-20T04:21:52.550Z,20.22
2023-03-20T04:22:52.614Z,20.33
2023-03-20T04:23:52.600Z,20.26
2023-03-20T04:24:52.930Z,20.26
2023-03-20T04:25:52.660Z,20.23
2023-03-20T04:26:52.765Z,20.31
2023-03-20T04:27:52.722Z,20.27
2023-03-20T04:28:52.766Z,20.20
2023-03-20T04:29:52.779Z,20.27
2023-03-20T04:30:52.812Z,20.23
2023-03-20T04:31:53.347Z,20.25
2023-03-20T04:32:52.889Z,20.23
2023-03-20T04:34:52.939Z,20.19
2023-03-20T04:35:53.038Z,20.23
2023-03-20T04:36:53.008Z,20.22
2023-03-20T04:37:53.019Z,20.20
2023-03-20T04:38:55.203Z,20.22
2023-03-20T04:40:53.101Z,20.23
2023-03-20T04:41:53.137Z,20.23
2023-03-20T04:42:53.170Z,20.22
2023-03-20T04:43:53.193Z,20.30
2023-03-20T04:44:53.223Z,20.15
2023-03-20T04:45:53.630Z,20.15
2023-03-20T04:46:53.281Z,20.13
2023-03-20T04:47:53.333Z,20.12
2023-03-20T04:48:53.342Z,20.19
2023-03-20T04:49:53.373Z,20.12
2023-03-20T04:50:53.423Z,20.20
2023-03-20T04:51:53.438Z,20.13
2023-03-20T04:52:53.761Z,20.20
2023-03-20T04:53:53.498Z,20.13
2023-03-20T04:54:53.525Z,20.19
2023-03-20T04:55:53.544Z,20.15
2023-03-20T04:56:53.590Z,20.15
2023-03-20T04:57:53.612Z,20.13
2023-03-20T04:58:53.649Z,20.17
2023-03-20T04:59:53.942Z,20.17
2023-03-20T05:00:53.769Z,20.17
2023-03-20T05:01:53.725Z,20.15
2023-03-20T05:02:53.856Z,20.19
2023-03-20T05:03:53.852Z,20.17
2023-03-20T05:04:53.828Z,20.15
2023-03-20T05:06:54.127Z,20.13
2023-03-20T05:07:53.914Z,20.13
2023-03-20T05:08:53.929Z,20.17
2023-03-20T05:09:53.963Z,20.13
2023-03-20T05:10:53.988Z,20.13
2023-03-20T05:11:54.019Z,20.19
2023-03-20T05:12:54.055Z,20.19
2023-03-20T05:13:54.377Z,20.17
2023-03-20T05:14:54.105Z,20.17
2023-03-20T05:15:54.134Z,20.16
2023-03-20T05:17:54.196Z,20.15
2023-03-20T05:18:54.226Z,20.16
2023-03-20T05:19:54.273Z,20.15
2023-03-20T05:20:54.535Z,20.16
2023-03-20T05:21:54.311Z,20.19
2023-03-20T05:23:54.369Z,20.13
2023-03-20T05:24:54.417Z,20.13
2023-03-20T05:25:54.432Z,20.23
2023-03-20T05:26:54.463Z,20.17
2023-03-20T05:27:54.792Z,20.15
2023-03-20T05:28:54.518Z,20.16
2023-03-20T05:29:54.560Z,20.13
2023-03-20T05:30:54.640Z,20.22
2023-03-20T05:31:54.602Z,20.19
2023-03-20T05:32:54.763Z,20.25
2023-03-20T05:33:54.990Z,20.17
2023-03-20T05:34:54.695Z,20.15
2023-03-20T05:35:54.782Z,20.13
2023-03-20T05:36:54.757Z,20.17
2023-03-20T05:37:54.790Z,20.16
2023-03-20T05:38:54.814Z,20.16
2023-03-20T05:39:55.139Z,20.16
2023-03-20T05:40:54.880Z,20.20
2023-03-20T05:41:54.906Z,20.13
2023-03-20T05:42:54.936Z,20.13
2023-03-20T05:43:55.067Z,20.10
2023-03-20T05:44:55.387Z,20.13
2023-03-20T05:45:55.299Z,20.17
2023-03-20T05:46:55.061Z,20.17
2023-03-20T05:47:55.077Z,20.16
2023-03-20T05:48:55.113Z,20.17
2023-03-20T05:49:55.137Z,20.15
2023-03-20T05:50:55.172Z,20.17
2023-03-20T05:51:55.226Z,20.20
2023-03-20T05:52:55.528Z,20.22
2023-03-20T05:53:55.266Z,20.17
2023-03-20T05:54:55.283Z,20.15
2023-03-20T05:55:55.319Z,20.17
2023-03-20T05:56:57.229Z,20.17
2023-03-20T05:57:55.373Z,20.16
2023-03-20T05:58:55.456Z,20.10
2023-03-20T06:00:55.790Z,20.16
2023-03-20T06:01:55.494Z,20.19
2023-03-20T06:02:55.533Z,20.16
2023-03-20T06:03:55.628Z,20.26
2023-03-20T06:04:55.588Z,20.13
2023-03-20T06:05:55.614Z,20.15
2023-03-20T06:06:55.943Z,20.17
2023-03-20T06:07:55.693Z,20.15
2023-03-20T06:08:55.737Z,20.16
2023-03-20T06:09:55.726Z,20.20
2023-03-20T06:10:55.758Z,20.16
2023-03-20T06:11:55.796Z,20.16
2023-03-20T06:12:55.819Z,20.16
2023-03-20T06:13:56.161Z,20.23
2023-03-20T06:14:55.884Z,20.13
2023-03-20T06:15:55.944Z,20.13
2023-03-20T06:16:56.045Z,20.17
2023-03-20T06:17:56.197Z,20.17
2023-03-20T06:18:55.997Z,20.10
2023-03-20T06:19:56.029Z,20.16
2023-03-20T06:21:56.086Z,20.16
2023-03-20T06:22:56.158Z,20.17
2023-03-20T06:24:57.049Z,20.13
2023-03-20T06:25:56.202Z,20.16
2023-03-20T06:26:56.233Z,20.15
2023-03-20T06:27:56.560Z,20.19
2023-03-20T06:28:56.293Z,20.17
2023-03-20T06:29:56.325Z,20.15
2023-03-20T06:30:56.524Z,20.26
2023-03-20T06:31:56.391Z,20.19
2023-03-20T06:32:56.472Z,20.15
2023-03-20T06:33:56.433Z,20.16
2023-03-20T06:34:56.769Z,20.19
2023-03-20T06:35:56.524Z,20.19
2023-03-20T06:36:56.530Z,20.23
2023-03-20T06:37:56.555Z,20.23
2023-03-20T06:38:56.585Z,20.22
2023-03-20T06:39:56.622Z,20.27
2023-03-20T06:40:56.661Z,20.27
2023-03-20T06:41:56.985Z,20.20
2023-03-20T06:42:56.707Z,20.20
2023-03-20T06:43:56.730Z,20.23
2023-03-20T06:44:56.777Z,20.30
2023-03-20T06:45:56.799Z,20.19
2023-03-20T06:46:56.973Z,20.30
2023-03-20T06:47:56.864Z,20.20
2023-03-20T06:48:57.183Z,20.20
2023-03-20T06:49:56.908Z,20.22
2023-03-20T06:50:56.945Z,20.22
2023-03-20T06:51:56.970Z,20.20
2023-03-20T06:52:56.997Z,20.22
2023-03-20T06:53:57.033Z,20.20
2023-03-20T06:54:57.059Z,20.26
2023-03-20T06:55:57.644Z,20.22
2023-03-20T06:56:57.286Z,20.22
2023-03-20T06:57:57.150Z,20.27
2023-03-20T06:58:57.184Z,20.23
2023-03-20T06:59:57.204Z,20.26
2023-03-20T07:00:57.238Z,20.23
2023-03-20T07:01:57.497Z,20.25
2023-03-20T07:02:57.325Z,20.25
2023-03-20T07:03:57.340Z,20.30
2023-03-20T07:04:57.411Z,20.33
2023-03-20T07:05:57.391Z,20.31
2023-03-20T07:06:57.416Z,20.30
2023-03-20T07:07:57.452Z,20.31
2023-03-20T07:08:57.474Z,20.25
2023-03-20T07:09:57.691Z,20.33
2023-03-20T07:10:57.536Z,20.27
2023-03-20T07:11:57.568Z,20.33
2023-03-20T07:12:57.630Z,20.26
2023-03-20T07:13:57.634Z,20.34
2023-03-20T07:14:57.950Z,20.33
2023-03-20T07:16:04.496Z,20.30
2023-03-20T07:16:57.740Z,20.35
2023-03-20T07:17:57.739Z,20.33
2023-03-20T07:18:57.789Z,20.30
2023-03-20T07:19:57.801Z,20.27
2023-03-20T07:21:57.864Z,20.31
2023-03-20T07:22:57.890Z,20.33
2023-03-20T07:23:57.935Z,20.31
2023-03-20T07:24:57.957Z,20.34
2023-03-20T07:25:57.978Z,20.27
2023-03-20T07:26:58.008Z,20.35
2023-03-20T07:29:58.137Z,20.37
2023-03-20T07:30:58.136Z,20.33
2023-03-20T07:31:58.157Z,20.26
2023-03-20T07:32:58.211Z,20.30
2023-03-20T07:33:58.321Z,20.33
2023-03-20T07:34:58.242Z,20.33
2023-03-20T07:35:58.291Z,20.33
2023-03-20T07:36:58.304Z,20.35
2023-03-20T07:37:58.420Z,20.35
2023-03-20T07:38:58.681Z,20.30
2023-03-20T07:39:58.393Z,20.33
2023-03-20T07:40:58.418Z,20.31
2023-03-20T07:41:58.448Z,20.31
2023-03-20T07:42:58.496Z,20.33
2023-03-20T07:43:58.511Z,20.40
2023-03-20T07:44:58.543Z,20.37
2023-03-20T07:45:58.694Z,20.40
2023-03-20T07:46:58.606Z,20.40
2023-03-20T07:47:58.679Z,20.40
2023-03-20T07:48:58.680Z,20.42
2023-03-20T07:49:58.694Z,20.42
2023-03-20T07:50:58.715Z,20.40
2023-03-20T07:52:58.781Z,20.40
2023-03-20T07:54:58.897Z,20.42
2023-03-20T07:55:58.860Z,20.44
2023-03-20T07:56:58.889Z,20.48
2023-03-20T07:57:59.205Z,20.48
2023-03-20T07:58:58.948Z,20.50
2023-03-20T07:59:59.011Z,20.42
2023-03-20T08:00:59.012Z,20.46
2023-03-20T08:01:59.061Z,20.50
2023-03-20T08:02:59.120Z,20.44
2023-03-20T08:03:59.556Z,20.46
2023-03-20T08:04:59.273Z,20.46
2023-03-20T08:05:59.164Z,20.41
2023-03-20T08:06:59.186Z,20.44
2023-03-20T08:07:59.225Z,20.42
2023-03-20T08:08:59.244Z,20.42
2023-03-20T08:10:59.555Z,20.42
2023-03-20T08:11:59.335Z,20.57
2023-03-20T08:12:59.377Z,20.60
2023-03-20T08:13:59.420Z,20.54
2023-03-20T08:14:59.432Z,20.60
2023-03-20T08:15:59.524Z,20.56
2023-03-20T08:17:13.965Z,20.56
2023-03-20T08:17:59.845Z,20.58
2023-03-20T08:19:59.582Z,20.64
2023-03-20T08:20:59.605Z,20.60
2023-03-20T08:21:59.641Z,20.61
2023-03-20T08:22:59.675Z,20.63
2023-03-20T08:23:59.697Z,20.58
2023-03-20T08:25:00.142Z,20.58
2023-03-20T08:25:59.761Z,20.57
2023-03-20T08:26:59.782Z,20.64
2023-03-20T08:27:59.816Z,20.64
2023-03-20T08:28:59.864Z,20.71
2023-03-20T08:29:59.883Z,20.68
2023-03-20T08:30:59.976Z,20.61
2023-03-20T08:32:00.385Z,20.64
2023-03-20T08:33:00.012Z,20.66
2023-03-20T08:34:00.014Z,20.63
2023-03-20T08:35:00.022Z,20.64
2023-03-20T08:36:00.079Z,20.64
2023-03-20T08:37:00.116Z,20.60
2023-03-20T08:38:00.126Z,20.66
2023-03-20T08:39:00.507Z,20.61
2023-03-20T08:40:00.339Z,20.58
2023-03-20T08:42:01.200Z,20.61
2023-03-20T08:43:00.305Z,20.64
2023-03-20T08:44:00.303Z,20.61
2023-03-20T08:45:00.327Z,20.57
2023-03-20T08:46:00.697Z,20.56
2023-03-20T08:47:00.391Z,20.56
2023-03-20T08:48:00.413Z,20.56
2023-03-20T08:50:00.520Z,20.60
2023-03-20T08:51:00.512Z,20.57
2023-03-20T08:52:00.552Z,20.54
2023-03-20T08:53:00.868Z,20.57
2023-03-20T08:54:00.618Z,20.56
2023-03-20T08:55:00.644Z,20.60
2023-03-20T08:56:00.665Z,20.58
2023-03-20T08:57:00.677Z,20.64
2023-03-20T08:58:00.729Z,20.61
2023-03-20T08:59:00.742Z,20.60
2023-03-20T09:00:00.844Z,20.58
2023-03-20T09:01:00.911Z,20.58
2023-03-20T09:02:00.909Z,20.66
2023-03-20T09:04:00.896Z,20.68
2023-03-20T09:05:00.916Z,20.60
2023-03-20T09:06:01.262Z,20.66
2023-03-20T09:07:00.979Z,20.63
2023-03-20T09:08:01.004Z,20.69
2023-03-20T09:09:01.033Z,20.61
2023-03-20T09:10:01.075Z,20.61
2023-03-20T09:11:01.096Z,20.61
2023-03-20T09:12:01.634Z,20.63
2023-03-20T09:13:05.373Z,20.60
2023-03-20T09:14:01.192Z,20.61
2023-03-20T09:15:01.239Z,20.66
2023-03-20T09:16:01.321Z,20.60
2023-03-20T09:17:01.272Z,20.60
2023-03-20T09:18:02.876Z,20.60
2023-03-20T09:19:01.336Z,20.60
2023-03-20T09:20:01.361Z,20.58
2023-03-20T09:21:01.428Z,20.58
2023-03-20T09:22:01.440Z,20.61
2023-03-20T09:23:01.446Z,20.63
2023-03-20T09:24:01.489Z,20.60
2023-03-20T09:25:01.768Z,20.57
2023-03-20T09:26:01.543Z,20.56
2023-03-20T09:28:01.604Z,20.60
2023-03-20T09:30:01.665Z,20.46
2023-03-20T09:31:01.851Z,20.57
2023-03-20T09:32:02.032Z,20.58
2023-03-20T09:33:01.829Z,20.57
2023-03-20T09:35:01.830Z,20.57
2023-03-20T09:37:01.880Z,20.60
2023-03-20T09:38:02.215Z,20.60
2023-03-20T09:40:01.961Z,20.64
2023-03-20T09:41:02.102Z,20.61
2023-03-20T09:42:02.116Z,20.64
2023-03-20T09:43:02.048Z,20.75
2023-03-20T09:45:02.402Z,20.73
2023-03-20T09:46:02.287Z,20.61
2023-03-20T09:47:18.308Z,20.63
2023-03-20T09:48:02.193Z,20.71
2023-03-20T09:49:02.231Z,20.68
2023-03-20T09:50:02.264Z,20.72
2023-03-20T09:51:02.290Z,20.71
2023-03-20T09:52:02.561Z,20.71
2023-03-20T09:53:02.360Z,20.79
2023-03-20T09:54:02.415Z,20.78
2023-03-20T09:55:02.431Z,20.73
2023-03-20T09:56:02.442Z,20.79
2023-03-20T09:57:02.666Z,20.82
2023-03-20T09:58:02.498Z,20.76
2023-03-20T09:59:02.825Z,20.85
2023-03-20T10:00:02.558Z,20.87
2023-03-20T10:01:02.659Z,20.82
2023-03-20T10:02:02.710Z,20.79
2023-03-20T10:03:02.685Z,20.88
2023-03-20T10:04:02.741Z,20.88
2023-03-20T10:06:03.064Z,20.85
2023-03-20T10:07:02.765Z,20.90
2023-03-20T10:08:02.789Z,20.88
2023-03-20T10:09:02.834Z,20.85
2023-03-20T10:10:02.880Z,20.83
2023-03-20T10:11:02.882Z,20.87
2023-03-20T10:12:02.916Z,20.83
2023-03-20T10:13:02.950Z,20.87
2023-03-20T10:16:03.070Z,20.85
2023-03-20T10:17:03.060Z,20.87
2023-03-20T10:18:03.112Z,20.83
2023-03-20T10:19:03.430Z,20.88
2023-03-20T10:21:04.768Z,20.81
2023-03-20T10:22:03.205Z,20.88
2023-03-20T10:23:03.245Z,20.81
2023-03-20T10:24:03.269Z,20.85
2023-03-20T10:25:03.319Z,20.85
2023-03-20T10:27:03.384Z,20.81
2023-03-20T10:28:03.401Z,20.85
2023-03-20T10:29:03.485Z,20.81
2023-03-20T10:30:03.461Z,20.78
2023-03-20T10:31:03.659Z,20.83
2023-03-20T10:32:03.513Z,20.78
2023-03-20T10:33:03.979Z,20.87
2023-03-20T10:34:03.570Z,20.83
2023-03-20T10:35:03.597Z,20.83
2023-03-20T10:37:03.666Z,20.88
2023-03-20T10:38:03.697Z,20.81
2023-03-20T10:39:04.025Z,20.82
2023-03-20T10:40:03.748Z,20.75
2023-03-20T10:41:03.783Z,20.78
2023-03-20T10:42:03.817Z,20.75
2023-03-20T10:43:03.858Z,20.76
2023-03-20T10:44:03.867Z,20.73
2023-03-20T10:45:04.109Z,20.71
2023-03-20T10:46:03.947Z,20.73
2023-03-20T10:47:04.023Z,20.66
2023-03-20T10:49:04.019Z,20.72
2023-03-20T10:50:04.146Z,20.61
2023-03-20T10:51:04.351Z,20.71
2023-03-20T10:52:04.108Z,20.72
2023-03-20T10:53:04.152Z,20.68
2023-03-20T10:54:04.189Z,20.68
2023-03-20T10:55:04.192Z,20.68
2023-03-20T10:56:04.246Z,20.68
2023-03-20T10:58:04.585Z,20.69
2023-03-20T10:59:04.345Z,20.72
2023-03-20T11:00:04.356Z,20.71
2023-03-20T11:01:04.411Z,20.79
2023-03-20T11:02:04.399Z,20.72
2023-03-20T11:03:04.444Z,20.73
2023-03-20T11:04:04.481Z,20.68
2023-03-20T11:05:04.802Z,20.69
2023-03-20T11:06:09.979Z,20.61
2023-03-20T11:07:04.700Z,20.71
2023-03-20T11:08:04.584Z,20.64
2023-03-20T11:09:04.614Z,20.60
2023-03-20T11:10:04.677Z,20.66
2023-03-20T11:11:04.672Z,20.72
2023-03-20T11:12:05.003Z,20.61
2023-03-20T11:14:04.768Z,20.61
2023-03-20T11:15:04.819Z,20.60
2023-03-20T11:16:04.828Z,20.60
2023-03-20T11:17:04.854Z,20.61
2023-03-20T11:18:04.888Z,20.61
2023-03-20T11:19:06.048Z,20.72
2023-03-20T11:20:04.955Z,20.63
2023-03-20T11:21:04.977Z,20.63
2023-03-20T11:22:05.002Z,20.61
2023-03-20T11:24:05.089Z,20.60
2023-03-20T11:25:05.410Z,20.57
2023-03-20T11:26:05.175Z,20.60
2023-03-20T11:27:05.155Z,20.57
2023-03-20T11:28:05.184Z,20.53
2023-03-20T11:29:05.218Z,20.57
2023-03-20T11:30:05.239Z,20.57
2023-03-20T11:31:05.719Z,20.57
2023-03-20T11:32:05.721Z,20.53
2023-03-20T11:33:05.337Z,20.60
2023-03-20T11:34:05.656Z,20.56
2023-03-20T11:35:05.391Z,20.60
2023-03-20T11:36:05.466Z,20.54
2023-03-20T11:37:12.766Z,20.60
2023-03-20T11:38:05.483Z,20.60
2023-03-20T11:39:05.507Z,20.58
2023-03-20T11:41:05.561Z,20.60
2023-03-20T11:42:05.603Z,20.60
2023-03-20T11:43:05.623Z,20.54
2023-03-20T11:44:05.658Z,20.53
2023-03-20T11:45:06.019Z,20.60
2023-03-20T11:46:05.749Z,20.57
2023-03-20T11:47:05.766Z,20.51
2023-03-20T11:48:05.770Z,20.57
2023-03-20T11:49:05.800Z,20.58
2023-03-20T11:50:05.828Z,20.54
2023-03-20T11:51:06.157Z,20.51
2023-03-20T11:52:05.915Z,20.51
2023-03-20T11:53:05.918Z,20.51
2023-03-20T11:54:05.971Z,20.57
2023-03-20T11:55:05.979Z,20.57
2023-03-20T11:56:06.015Z,20.51
2023-03-20T11:57:06.359Z,20.51
2023-03-20T11:58:06.474Z,20.44
2023-03-20T11:59:06.098Z,20.58
2023-03-20T12:01:06.157Z,20.53
2023-03-20T12:02:06.220Z,20.53
2023-03-20T12:03:06.593Z,20.54
2023-03-20T12:04:06.250Z,20.56
2023-03-20T12:05:06.280Z,20.57
2023-03-20T12:07:06.340Z,20.63
2023-03-20T12:08:06.392Z,20.57
2023-03-20T12:09:06.404Z,20.57
2023-03-20T12:11:06.514Z,20.57
2023-03-20T12:12:06.488Z,20.54
2023-03-20T12:13:06.559Z,20.53
2023-03-20T12:14:06.554Z,20.46
2023-03-20T12:16:06.968Z,20.42
2023-03-20T12:17:06.643Z,20.50
2023-03-20T12:18:06.666Z,20.42
2023-03-20T12:19:06.719Z,20.51
2023-03-20T12:20:06.723Z,20.50
2023-03-20T12:21:06.758Z,20.51
2023-03-20T12:22:06.785Z,20.46
2023-03-20T12:23:06.826Z,20.42
2023-03-20T12:24:06.857Z,20.46
2023-03-20T12:25:06.872Z,20.44
2023-03-20T12:26:06.911Z,20.46
2023-03-20T12:27:06.931Z,20.44
2023-03-20T12:29:07.298Z,20.50
2023-03-20T12:30:07.028Z,20.40
2023-03-20T12:31:07.105Z,20.50
2023-03-20T12:32:07.087Z,20.41
2023-03-20T12:33:07.151Z,20.44
2023-03-20T12:34:07.140Z,20.44
2023-03-20T12:35:07.436Z,20.50
2023-03-20T12:36:07.244Z,20.42
2023-03-20T12:37:07.228Z,20.53
2023-03-20T12:38:07.262Z,20.42
2023-03-20T12:39:07.287Z,20.42
2023-03-20T12:40:07.315Z,20.48
2023-03-20T12:41:07.608Z,20.48
2023-03-20T12:42:07.385Z,20.42
2023-03-20T12:44:07.452Z,20.44
2023-03-20T12:45:07.467Z,20.46
2023-03-20T12:46:07.527Z,20.48
2023-03-20T12:47:07.836Z,20.54
2023-03-20T12:48:07.565Z,20.60
2023-03-20T12:49:07.594Z,20.57
2023-03-20T12:50:07.610Z,20.61
2023-03-20T12:51:07.663Z,20.58
2023-03-20T12:52:07.705Z,20.61
2023-03-20T12:53:07.757Z,20.60
2023-03-20T12:54:07.981Z,20.69
2023-03-20T12:55:07.761Z,20.69
2023-03-20T12:56:07.792Z,20.72
2023-03-20T12:57:07.820Z,20.66
2023-03-20T12:59:07.893Z,20.71
2023-03-20T13:00:07.920Z,20.72
2023-03-20T13:01:08.245Z,20.72
2023-03-20T13:02:08.126Z,20.76
2023-03-20T13:03:08.097Z,20.82
2023-03-20T13:04:08.028Z,20.81
2023-03-20T13:05:08.074Z,20.82
2023-03-20T13:06:08.083Z,20.85
2023-03-20T13:07:08.139Z,20.85
2023-03-20T13:08:08.443Z,20.85
2023-03-20T13:09:08.289Z,20.81
2023-03-20T13:11:08.240Z,20.87
2023-03-20T13:12:08.284Z,20.85
2023-03-20T13:13:08.292Z,20.88
2023-03-20T13:14:08.347Z,20.91
2023-03-20T13:15:08.350Z,20.91
2023-03-20T13:16:08.474Z,20.83
2023-03-20T13:17:08.413Z,20.90
2023-03-20T13:18:08.442Z,20.90
2023-03-20T13:19:08.478Z,20.85
2023-03-20T13:20:08.499Z,20.90
2023-03-20T13:21:08.838Z,21.00
2023-03-20T13:22:08.560Z,20.85
2023-03-20T13:23:08.619Z,20.93
2023-03-20T13:24:10.427Z,20.91
2023-03-20T13:25:08.656Z,20.96
2023-03-20T13:27:09.012Z,20.98
2023-03-20T13:28:08.752Z,20.96
2023-03-20T13:29:08.799Z,20.98
2023-03-20T13:30:09.020Z,20.83
2023-03-20T13:31:08.881Z,21.00
2023-03-20T13:32:09.015Z,20.97
2023-03-20T13:33:09.230Z,21.00
2023-03-20T13:34:08.919Z,20.94
2023-03-20T13:35:08.949Z,20.97
2023-03-20T13:36:09.086Z,20.98
2023-03-20T13:37:22.505Z,20.97
2023-03-20T13:38:09.041Z,20.93
2023-03-20T13:41:09.158Z,20.93
2023-03-20T13:42:09.160Z,20.88
2023-03-20T13:43:09.192Z,20.88
2023-03-20T13:45:09.550Z,20.91
2023-03-20T13:46:09.276Z,20.98
2023-03-20T13:47:09.379Z,21.00
2023-03-20T13:48:09.334Z,20.91
2023-03-20T13:49:09.374Z,20.96
2023-03-20T13:50:09.410Z,20.96